Aérodrome :
LOGIN :

S'inscrire | Disclaimer

   EN    FR    IT 

 










Légende :    VFR   VFR Marginal   IFR   IFR Intensif   IFR Très Intensif
Visi : 
Plafond : 
>= 8 km
>= 3000ft
5 à 8 km
1000 à 3000 ft
1500m à 5 km
500 à 1000 ft
800 à 1500m
200 à 500 ft
< 800m
< 200 ft
Symboles :   Orages  Brouillard  Fortes neiges  Fortes précipitations  Vent > 20 kt
SIGMETs :   Divers  Orages  Givrage  Turbulence  Onde Orograph.  Cendres Volcan.






- Altitude de l'aérodrome : 1058 ft
- Code IATA : SCN


EDDR - Saarbrücken

DERNIER METAR :
  • 240550Z 10003KT 4000 BR OVC004 M01/M02 Q1024 NOSIG

METARs EXPIRÉS :
  • 240520Z 09003KT 4200 BR OVC004 M01/M02 Q1024 NOSIG
  • 240450Z VRB01KT 4500 BR OVC004 M01/M02 Q1023 NOSIG
  • 240420Z 16004KT 6000 OVC005 M01/M02 Q1024
  • 240350Z 14003KT 080V180 6000 OVC005 M01/M02 Q1024
  • 240320Z VRB02KT 7000 OVC006 M01/M02 Q1024

TAF TAF EDDR
Valide du 24 à 06h jusqu'au 25 à 06h UTC


240500Z 2406/2506 VRB03KT 6000 OVC006
TEMPO 2406/2410 3000 BR BKN002
BECMG 2410/2413 BKN012
BECMG 2418/2421 4000 BR
TEMPO 2421/2506 0400 FZFG VV001



MET'MAP, la Météo Aéronautique d'un coup d'oeil ! - Copyright ORBIFLY Décembre 2007 - Disclaimer

ORBIFLY MET'MAP TEAM :

Programmation & Développement : Alexandra Zaïnal
Sur une idée originale de : Baudouin d'Aumeries
Assistance à la programmation : Marc-Olivier Méhu
Soutien technique & logistique : Manuel Goepfert

Contact : metmap@orbifly.com




SOURCES & CREDITS :

   NOAA